KAEG

Double Eagle II Airport

Albuquerque, New Mexico, USA
METAR KAEG 202347Z 12007KT 10SM SKC 31/08 A3020
Observed Flight Rules
Aug-20 @ 23:47 UTC (20 minutes ago) Visual Flight Rules
Wind Visibility Clouds
120° at 7 knots 10 miles
  • Clear skies
Temperatures Readings
Current 31°C / 88°F
Dewpoint 8°C / 46°F
Humidity 24%
Altimeter 30.2" Hg
Pressure 1023 hPa
Elevation 1779
METAR KAEG 202347Z 12007KT 10SM SKC 31/08 A3020
Observed Flight Rules
Aug-20 @ 23:47 UTC
(20 minutes ago)
VFR
Wind Visibility
120° at 7 knots 10 miles
Clouds
  • Clear skies
Temperature Dewpoint
31°C / 88°F 8°C / 46°F
Humidity Altimeter Pressure
24% 30.2" Hg 1023 hPa